Time;durP1;ratioP1;P1;durP2;ratioP2;P2;SDS_P1;SDS_P2;PMS_P1;PMS_P2;Temp;Humidity;BMP_temperature;BMP_pressure;BME280_temperature;BME280_humidity;BME280_pressure;Samples;Min_cycle;Max_cycle;Signal;HPM_P1;HPM_P2
2023/01/06 00:00:12;;;;;;;1.00;1.00;;;;;;;9.54;88.52;99664.53;5050155;28;20216;-61
2023/01/06 00:02:39;;;;;;;0.60;0.60;;;;;;;9.55;88.40;99676.47;5050538;28;20196;-61
2023/01/06 00:05:06;;;;;;;0.50;0.50;;;;;;;9.50;88.40;99674.84;5047204;28;20232;-61
2023/01/06 00:07:33;;;;;;;1.13;1.13;;;;;;;9.50;88.04;99685.09;5050368;28;20203;-61
2023/01/06 00:10:00;;;;;;;0.60;0.60;;;;;;;9.56;87.46;99690.97;5049944;28;20557;-61
2023/01/06 00:12:27;;;;;;;0.77;0.77;;;;;;;9.55;87.25;99686.69;5050074;28;20201;-61
2023/01/06 00:14:55;;;;;;;0.40;0.40;;;;;;;9.58;87.29;99678.97;5050182;28;20669;-61
2023/01/06 00:17:22;;;;;;;0.47;0.47;;;;;;;9.71;85.93;99690.63;5049724;28;20196;-61
2023/01/06 00:19:49;;;;;;;0.60;0.60;;;;;;;9.75;84.81;99679.44;5050247;28;20227;-61
2023/01/06 00:22:15;;;;;;;0.83;0.83;;;;;;;9.89;84.08;99698.72;5050178;28;20197;-61
2023/01/06 00:24:43;;;;;;;2.20;1.10;;;;;;;9.83;84.34;99683.50;5050329;28;20250;-61
2023/01/06 00:27:10;;;;;;;0.70;0.70;;;;;;;9.94;83.48;99696.06;5050016;28;20231;-61
2023/01/06 00:29:36;;;;;;;0.73;0.73;;;;;;;9.76;83.44;99688.78;5049804;28;20196;-61
2023/01/06 00:32:05;;;;;;;0.60;0.60;;;;;;;9.73;83.26;99697.38;5050157;28;20673;-61
2023/01/06 00:34:32;;;;;;;0.40;0.40;;;;;;;9.48;83.75;99671.47;5049598;28;20208;-60
2023/01/06 00:36:58;;;;;;;0.60;0.60;;;;;;;9.61;84.59;99712.16;5049889;28;20215;-61
2023/01/06 00:39:25;;;;;;;0.47;0.47;;;;;;;9.50;84.75;99707.25;5050020;28;20201;-61
2023/01/06 00:42:04;;;;;;;0.47;0.47;;;;;;;9.48;85.79;99712.44;5050027;28;20208;-61
2023/01/06 00:44:32;;;;;;;0.50;0.50;;;;;;;9.44;86.28;99720.19;5047423;28;20224;-61
2023/01/06 00:46:59;;;;;;;0.80;0.80;;;;;;;9.36;86.82;99720.38;5049695;28;20680;-61
2023/01/06 00:49:28;;;;;;;0.60;0.60;;;;;;;9.25;86.78;99713.75;5049663;28;20581;-61
2023/01/06 00:51:55;;;;;;;0.50;0.50;;;;;;;9.19;87.55;99714.72;5049658;28;20189;-61
2023/01/06 00:54:21;;;;;;;0.40;0.40;;;;;;;9.13;88.17;99716.56;5046918;28;20258;-61
2023/01/06 00:56:51;;;;;;;0.60;0.60;;;;;;;9.13;87.90;99719.97;5049669;28;20220;-61
2023/01/06 00:59:20;;;;;;;0.50;0.50;;;;;;;9.10;88.09;99722.59;5049368;28;20201;-61
2023/01/06 01:01:48;;;;;;;0.73;0.73;;;;;;;9.09;88.49;99728.56;5049677;28;20754;-61
2023/01/06 01:04:15;;;;;;;0.50;0.50;;;;;;;9.11;88.28;99731.91;5049438;28;20602;-61
2023/01/06 01:06:45;;;;;;;0.50;0.50;;;;;;;9.02;88.65;99714.19;5050679;28;20192;-61
2023/01/06 01:09:14;;;;;;;0.60;0.60;;;;;;;9.10;88.43;99730.25;5053435;28;20668;-61
2023/01/06 01:14:25;;;;;;;0.70;0.70;;;;;;;9.11;88.68;99724.25;5052782;28;20199;-61
2023/01/06 01:16:52;;;;;;;0.60;0.60;;;;;;;9.10;88.84;99714.06;5053086;28;20204;-61
2023/01/06 01:19:22;;;;;;;1.03;1.03;;;;;;;9.17;88.57;99713.94;5053442;28;20626;-60
2023/01/06 01:21:50;;;;;;;0.40;0.40;;;;;;;9.14;88.66;99716.56;5052260;28;20213;-61
2023/01/06 01:24:18;;;;;;;0.50;0.50;;;;;;;9.19;89.09;99703.66;5053355;28;20219;-61
2023/01/06 01:26:45;;;;;;;1.13;1.13;;;;;;;9.30;89.16;99712.81;5052758;28;20220;-61
2023/01/06 01:29:12;;;;;;;0.40;0.40;;;;;;;9.32;88.66;99712.78;5052465;28;20611;-61
2023/01/06 01:31:39;;;;;;;0.40;0.40;;;;;;;9.36;88.78;99719.50;5052619;28;20230;-61
2023/01/06 01:34:06;;;;;;;0.40;0.40;;;;;;;9.40;88.71;99714.28;5052158;28;20197;-61
2023/01/06 01:36:33;;;;;;;0.43;0.43;;;;;;;9.37;88.59;99718.66;5052737;28;20284;-61
2023/01/06 01:39:02;;;;;;;0.43;0.43;;;;;;;9.45;88.60;99717.63;5052507;28;20204;-61
2023/01/06 01:41:30;;;;;;;0.47;0.47;;;;;;;9.39;88.95;99717.75;5052583;28;20573;-61
2023/01/06 01:43:59;;;;;;;6.33;0.97;;;;;;;9.47;90.55;99710.75;5052384;28;20226;-61
2023/01/06 01:46:29;;;;;;;0.80;0.80;;;;;;;9.59;91.26;99708.81;5052508;28;20193;-61
2023/01/06 01:49:00;;;;;;;0.50;0.50;;;;;;;9.88;90.73;99717.53;5052261;28;20296;-61
2023/01/06 01:51:31;;;;;;;0.70;0.70;;;;;;;10.06;90.37;99706.03;5052616;28;20669;-61
2023/01/06 01:54:05;;;;;;;0.50;0.50;;;;;;;10.10;89.55;99696.56;5052530;28;20220;-61
2023/01/06 01:56:36;;;;;;;0.60;0.60;;;;;;;10.19;89.70;99697.22;5052300;28;20204;-61
2023/01/06 01:59:07;;;;;;;0.77;0.77;;;;;;;10.19;89.57;99666.47;5051665;28;20200;-61
2023/01/06 02:01:34;;;;;;;0.43;0.43;;;;;;;10.32;89.14;99682.38;5052296;28;20561;-61
2023/01/06 02:04:03;;;;;;;0.40;0.40;;;;;;;10.41;88.77;99685.56;5052272;28;20239;-61
2023/01/06 02:06:30;;;;;;;0.60;0.60;;;;;;;10.51;88.33;99704.09;5052064;28;20292;-61
2023/01/06 02:09:05;;;;;;;0.40;0.40;;;;;;;10.45;88.43;99705.09;5051969;28;20203;-61
2023/01/06 02:11:35;;;;;;;0.40;0.40;;;;;;;10.57;88.49;99714.19;5051619;28;20192;-61
2023/01/06 02:14:10;;;;;;;0.60;0.60;;;;;;;10.65;88.48;99714.03;5050482;28;20207;-61
2023/01/06 02:16:50;;;;;;;0.87;0.87;;;;;;;10.71;88.04;99711.28;5051885;28;20196;-61
2023/01/06 02:19:53;;;;;;;0.47;0.47;;;;;;;10.78;87.92;99712.81;5050956;28;20197;-61
2023/01/06 02:22:37;;;;;;;0.50;0.50;;;;;;;10.89;87.27;99706.53;5051851;28;20200;-61
2023/01/06 02:25:39;;;;;;;0.50;0.50;;;;;;;11.09;86.99;99682.91;5051713;28;20205;-61
2023/01/06 02:28:39;;;;;;;0.50;0.50;;;;;;;11.21;86.35;99690.25;5051762;28;20200;-61
2023/01/06 02:31:47;;;;;;;0.43;0.43;;;;;;;11.22;86.43;99673.97;5051453;28;20197;-61
2023/01/06 02:34:27;;;;;;;0.63;0.63;;;;;;;11.18;86.55;99669.81;5029952;28;20643;-61
2023/01/06 02:37:04;;;;;;;1.00;0.90;;;;;;;11.11;87.43;99686.28;5051761;28;20205;-61
2023/01/06 02:39:44;;;;;;;0.70;0.70;;;;;;;10.98;87.36;99675.53;5051544;28;20204;-61
2023/01/06 02:42:21;;;;;;;0.50;0.50;;;;;;;10.84;87.54;99661.38;5050868;28;20220;-62
2023/01/06 02:45:01;;;;;;;0.60;0.60;;;;;;;10.92;87.31;99670.53;5051209;28;20208;-61
2023/01/06 02:47:34;;;;;;;0.50;0.50;;;;;;;10.98;86.62;99672.09;5051472;28;20192;-61
2023/01/06 02:50:13;;;;;;;0.40;0.40;;;;;;;11.07;86.14;99670.13;5051384;28;20680;-62
2023/01/06 02:52:45;;;;;;;0.40;0.40;;;;;;;11.08;86.18;99661.53;5049992;28;20573;-61
2023/01/06 02:55:18;;;;;;;0.60;0.60;;;;;;;11.04;86.52;99659.09;5051144;28;20580;-61
2023/01/06 02:57:51;;;;;;;0.50;0.50;;;;;;;11.03;86.55;99657.41;5051301;28;20207;-61
2023/01/06 03:00:24;;;;;;;0.60;0.60;;;;;;;11.07;86.43;99659.88;5050964;28;20205;-61
2023/01/06 03:02:56;;;;;;;0.70;0.70;;;;;;;11.13;86.07;99648.59;5051292;28;20208;-62
2023/01/06 03:05:27;;;;;;;0.53;0.53;;;;;;;11.15;85.89;99651.94;5050483;28;20235;-61
2023/01/06 03:07:55;;;;;;;0.60;0.60;;;;;;;11.14;86.60;99655.41;5050467;28;20631;-61
2023/01/06 03:10:25;;;;;;;0.60;0.60;;;;;;;11.10;86.99;99653.81;5050973;28;20271;-62
2023/01/06 03:12:56;;;;;;;0.40;0.40;;;;;;;11.06;87.09;99641.94;5050799;28;20204;-61
2023/01/06 03:15:24;;;;;;;0.60;0.60;;;;;;;11.06;86.82;99647.06;5050998;28;20234;-62
2023/01/06 03:17:51;;;;;;;0.50;0.50;;;;;;;11.04;86.70;99649.69;5050836;28;20608;-61
2023/01/06 03:20:19;;;;;;;0.60;0.60;;;;;;;11.12;86.31;99652.03;5050776;28;20204;-61
2023/01/06 03:22:47;;;;;;;0.50;0.50;;;;;;;11.24;85.96;99661.97;5050829;28;20573;-62
2023/01/06 03:25:15;;;;;;;0.40;0.40;;;;;;;11.12;86.15;99656.31;5050858;28;20197;-62
2023/01/06 03:27:41;;;;;;;1.27;1.27;;;;;;;11.14;86.29;99677.66;5050088;28;20201;-61
2023/01/06 03:30:12;;;;;;;0.40;0.40;;;;;;;10.99;86.44;99660.94;5050039;28;20554;-61
2023/01/06 03:32:47;;;;;;;0.50;0.50;;;;;;;10.93;86.52;99661.13;5050640;28;20196;-61
2023/01/06 03:35:26;;;;;;;0.40;0.40;;;;;;;10.86;87.22;99659.59;5050579;28;20291;-62
2023/01/06 03:38:02;;;;;;;0.80;0.80;;;;;;;10.81;87.44;99653.75;5050088;28;20684;-61
2023/01/06 03:40:33;;;;;;;0.47;0.47;;;;;;;10.78;87.91;99651.28;5050714;28;20270;-62
2023/01/06 03:43:14;;;;;;;0.40;0.40;;;;;;;10.75;88.67;99644.53;5048071;28;20197;-61
2023/01/06 03:45:56;;;;;;;0.50;0.50;;;;;;;10.73;88.98;99648.81;5050711;28;20247;-62
2023/01/06 03:48:33;;;;;;;0.70;0.70;;;;;;;10.66;89.36;99649.91;5050666;28;20208;-61
2023/01/06 03:51:06;;;;;;;0.50;0.50;;;;;;;10.60;89.66;99657.72;5050322;28;20334;-62
2023/01/06 03:53:40;;;;;;;0.40;0.40;;;;;;;10.49;90.05;99658.03;5050401;28;20224;-61
2023/01/06 03:56:16;;;;;;;0.70;0.70;;;;;;;10.43;90.41;99659.91;5050596;28;20201;-61
2023/01/06 03:58:46;;;;;;;0.50;0.50;;;;;;;10.37;91.07;99660.88;5049848;28;20581;-62
2023/01/06 04:01:15;;;;;;;0.50;0.50;;;;;;;10.37;91.33;99676.25;5050035;28;20234;-62
2023/01/06 04:03:44;;;;;;;1.10;1.00;;;;;;;10.31;91.67;99681.53;5050171;28;20232;-61
2023/01/06 04:06:11;;;;;;;5.00;0.90;;;;;;;10.27;91.41;99679.09;5049354;28;20204;-61
2023/01/06 04:08:39;;;;;;;0.60;0.60;;;;;;;10.21;92.28;99677.50;5050127;28;20665;-62
2023/01/06 04:11:06;;;;;;;0.70;0.70;;;;;;;10.07;92.29;99663.34;5050408;28;20692;-61
2023/01/06 04:13:32;;;;;;;0.50;0.50;;;;;;;10.14;92.27;99683.69;5049961;28;20223;-62
2023/01/06 04:15:59;;;;;;;0.90;0.60;;;;;;;10.14;92.13;99686.25;5050441;28;20205;-61
2023/01/06 04:18:26;;;;;;;0.60;0.60;;;;;;;10.14;91.74;99699.06;5049693;28;20247;-61
2023/01/06 04:20:52;;;;;;;0.47;0.47;;;;;;;10.26;90.64;99688.50;5049657;28;20215;-61
2023/01/06 04:23:19;;;;;;;0.50;0.50;;;;;;;10.38;89.81;99700.16;5050104;28;20211;-61
2023/01/06 04:25:47;;;;;;;0.40;0.40;;;;;;;10.39;89.20;99689.88;5050002;28;20661;-61
2023/01/06 04:28:14;;;;;;;0.47;0.47;;;;;;;10.62;88.26;99716.66;5050066;28;20193;-61
2023/01/06 04:30:41;;;;;;;0.70;0.70;;;;;;;10.63;87.81;99710.66;5049567;28;20623;-62
2023/01/06 04:33:07;;;;;;;0.47;0.47;;;;;;;10.67;87.36;99725.06;5049431;28;20209;-61
2023/01/06 04:35:34;;;;;;;0.50;0.50;;;;;;;10.70;86.70;99730.13;5050033;28;20200;-62
2023/01/06 04:38:02;;;;;;;0.40;0.40;;;;;;;10.81;86.17;99733.25;5049842;28;20204;-62
2023/01/06 04:40:28;;;;;;;0.50;0.50;;;;;;;10.77;86.43;99741.91;5049958;28;20296;-61
2023/01/06 04:43:06;;;;;;;0.60;0.60;;;;;;;10.81;85.94;99748.66;5053135;28;20215;-61
2023/01/06 04:45:33;;;;;;;0.40;0.40;;;;;;;10.76;85.78;99745.38;5054056;28;20235;-62
2023/01/06 04:48:00;;;;;;;0.50;0.50;;;;;;;10.76;86.24;99760.75;5053686;28;20193;-62
2023/01/06 04:50:27;;;;;;;0.50;0.50;;;;;;;10.78;86.11;99757.28;5052133;28;21735;-62
2023/01/06 04:52:54;;;;;;;0.50;0.50;;;;;;;10.81;85.45;99764.03;5053530;28;20200;-62
2023/01/06 04:55:21;;;;;;;0.60;0.60;;;;;;;10.82;84.81;99761.44;5052989;28;20208;-61
2023/01/06 04:57:48;;;;;;;0.60;0.60;;;;;;;10.82;85.64;99776.00;5051435;28;20250;-62
2023/01/06 05:00:16;;;;;;;0.57;0.57;;;;;;;10.79;85.62;99776.06;5053261;28;20266;-62
2023/01/06 05:02:43;;;;;;;0.40;0.40;;;;;;;10.81;85.17;99787.13;5052939;28;20213;-61
2023/01/06 05:05:11;;;;;;;0.50;0.50;;;;;;;10.71;85.46;99783.09;5047136;28;20251;-61
2023/01/06 05:07:38;;;;;;;0.40;0.40;;;;;;;10.73;85.66;99807.81;5050073;28;20734;-61
2023/01/06 05:10:07;;;;;;;0.50;0.50;;;;;;;10.72;85.40;99795.03;5049550;28;20201;-61
2023/01/06 05:12:34;;;;;;;0.80;0.80;;;;;;;10.71;85.73;99803.59;5048648;28;20558;-62
2023/01/06 05:15:03;;;;;;;0.50;0.50;;;;;;;10.62;85.88;99803.84;5049594;28;20204;-61
2023/01/06 05:17:31;;;;;;;0.60;0.60;;;;;;;10.66;85.75;99805.44;5050993;28;20204;-61
2023/01/06 05:19:58;;;;;;;0.40;0.40;;;;;;;10.65;85.88;99801.19;5051664;28;20208;-61
2023/01/06 05:22:25;;;;;;;0.50;0.50;;;;;;;10.68;85.28;99799.41;5040388;28;20316;-63
2023/01/06 05:24:52;;;;;;;0.50;0.50;;;;;;;10.65;85.41;99799.47;5037954;28;20205;-63
2023/01/06 05:27:18;;;;;;;0.50;0.50;;;;;;;10.67;85.41;99807.13;5044921;28;20207;-62
2023/01/06 05:29:45;;;;;;;0.30;0.30;;;;;;;10.62;85.28;99807.25;5052583;28;20209;-62
2023/01/06 05:32:12;;;;;;;0.50;0.50;;;;;;;10.63;84.99;99818.34;5052723;28;20196;-62
2023/01/06 05:34:40;;;;;;;0.50;0.50;;;;;;;10.62;85.09;99824.34;5052342;28;20204;-63
2023/01/06 05:37:07;;;;;;;0.50;0.50;;;;;;;10.79;84.03;99832.50;5052946;28;20200;-62
2023/01/06 05:39:34;;;;;;;0.30;0.30;;;;;;;10.83;83.51;99837.47;5052655;28;20196;-62
2023/01/06 05:42:00;;;;;;;0.37;0.37;;;;;;;10.84;83.43;99830.63;5052779;28;20216;-62
2023/01/06 05:44:28;;;;;;;0.50;0.50;;;;;;;10.90;83.47;99838.19;5052914;28;20254;-63
2023/01/06 05:46:54;;;;;;;0.50;0.50;;;;;;;10.72;83.35;99807.88;5052870;28;20278;-63
2023/01/06 05:49:21;;;;;;;0.40;0.40;;;;;;;10.82;83.22;99832.41;5051275;28;20197;-62
2023/01/06 05:51:49;;;;;;;0.43;0.43;;;;;;;10.78;83.94;99828.22;5052320;28;20251;-63
2023/01/06 05:54:16;;;;;;;0.50;0.50;;;;;;;10.74;83.90;99835.16;5052075;28;20208;-62
2023/01/06 05:56:43;;;;;;;0.40;0.40;;;;;;;10.70;84.12;99822.41;5052173;28;20201;-62
2023/01/06 05:59:10;;;;;;;0.43;0.43;;;;;;;10.70;84.33;99832.69;5051691;28;20205;-63
2023/01/06 06:01:37;;;;;;;7.00;1.20;;;;;;;10.65;84.71;99829.41;5051998;28;20217;-62
2023/01/06 06:04:04;;;;;;;0.57;0.57;;;;;;;10.58;84.90;99817.59;5051844;28;20704;-62
2023/01/06 06:06:31;;;;;;;0.50;0.50;;;;;;;10.54;85.47;99816.81;5047201;28;20255;-62
2023/01/06 06:08:59;;;;;;;0.50;0.50;;;;;;;10.43;85.51;99803.44;5051812;28;20689;-62
2023/01/06 06:11:26;;;;;;;0.50;0.50;;;;;;;10.47;86.03;99826.38;5050500;28;20196;-62
2023/01/06 06:13:55;;;;;;;0.40;0.40;;;;;;;10.45;85.78;99827.28;5045888;28;20204;-62
2023/01/06 06:16:24;;;;;;;0.53;0.53;;;;;;;10.42;85.59;99837.63;5049839;28;20205;-62
2023/01/06 06:18:52;;;;;;;0.60;0.60;;;;;;;10.43;85.37;99829.91;5051246;28;20200;-62
2023/01/06 06:21:21;;;;;;;0.60;0.60;;;;;;;10.44;85.80;99830.72;5051305;28;20208;-62
2023/01/06 06:23:48;;;;;;;0.43;0.43;;;;;;;10.51;84.67;99843.38;5052239;28;20665;-62
2023/01/06 06:26:17;;;;;;;0.60;0.60;;;;;;;10.47;84.89;99844.31;5051141;28;20193;-62
2023/01/06 06:28:43;;;;;;;0.40;0.40;;;;;;;10.57;84.81;99854.34;5051641;28;20204;-62
2023/01/06 06:31:13;;;;;;;0.50;0.50;;;;;;;10.59;84.44;99865.44;5049830;28;20205;-62
2023/01/06 06:33:40;;;;;;;0.50;0.50;;;;;;;10.60;84.20;99862.81;5045964;28;20297;-63
2023/01/06 06:36:10;;;;;;;0.50;0.50;;;;;;;10.68;83.70;99875.47;5050563;28;20204;-63
2023/01/06 06:38:37;;;;;;;0.63;0.63;;;;;;;10.80;82.98;99870.06;5050913;28;20284;-63
2023/01/06 06:41:05;;;;;;;0.60;0.60;;;;;;;10.82;82.74;99881.13;5048408;28;20242;-62
2023/01/06 06:43:34;;;;;;;0.47;0.47;;;;;;;10.80;82.88;99877.75;5043351;28;20216;-63
2023/01/06 06:46:00;;;;;;;0.53;0.53;;;;;;;10.87;82.66;99887.00;5049736;28;20577;-62
2023/01/06 06:48:28;;;;;;;0.40;0.40;;;;;;;10.90;82.30;99899.75;5048427;28;20207;-62
2023/01/06 06:50:58;;;;;;;0.50;0.50;;;;;;;10.96;81.40;99899.59;5048266;28;20201;-62
2023/01/06 06:53:25;;;;;;;0.57;0.57;;;;;;;11.02;81.33;99902.84;5049614;28;20208;-63
2023/01/06 06:55:52;;;;;;;0.57;0.57;;;;;;;10.92;80.97;99874.91;5048102;28;20201;-63
2023/01/06 06:58:19;;;;;;;0.40;0.40;;;;;;;11.10;80.80;99902.69;5047410;28;20211;-63
2023/01/06 07:00:47;;;;;;;0.50;0.50;;;;;;;11.09;81.36;99888.16;5049888;28;20270;-63
2023/01/06 07:03:14;;;;;;;0.50;0.50;;;;;;;11.13;80.50;99884.63;5049804;28;20299;-64
2023/01/06 07:05:42;;;;;;;0.60;0.60;;;;;;;11.15;80.42;99897.44;5049724;28;20296;-63
2023/01/06 07:08:09;;;;;;;0.80;0.80;;;;;;;11.18;80.87;99893.06;5043142;28;20337;-63
2023/01/06 07:10:36;;;;;;;0.60;0.60;;;;;;;11.21;80.56;99913.50;5046267;28;20204;-63
2023/01/06 07:13:03;;;;;;;0.50;0.50;;;;;;;11.25;80.97;99915.13;5048434;28;20197;-63
2023/01/06 07:15:29;;;;;;;0.50;0.50;;;;;;;11.27;81.13;99913.38;5047204;28;20216;-63
2023/01/06 07:18:01;;;;;;;0.50;0.50;;;;;;;11.29;80.99;99923.59;5047348;28;20684;-63
2023/01/06 07:20:28;;;;;;;0.40;0.40;;;;;;;11.39;79.83;99930.19;5048170;28;20236;-66
2023/01/06 07:22:55;;;;;;;0.50;0.50;;;;;;;11.53;78.69;99934.06;5049303;28;20224;-62
2023/01/06 07:25:22;;;;;;;0.60;0.60;;;;;;;11.60;78.71;99942.47;5045693;28;20208;-63
2023/01/06 07:27:53;;;;;;;0.50;0.50;;;;;;;11.52;78.97;99924.72;5045543;28;20205;-63
2023/01/06 07:30:21;;;;;;;0.40;0.40;;;;;;;11.59;79.06;99943.38;5046182;28;20201;-63
2023/01/06 07:32:48;;;;;;;0.40;0.40;;;;;;;11.68;78.42;99944.84;5048315;28;20216;-63
2023/01/06 07:35:17;;;;;;;0.50;0.50;;;;;;;11.77;77.43;99955.75;5048318;28;20209;-62
2023/01/06 07:37:44;;;;;;;0.67;0.67;;;;;;;11.87;77.12;99961.50;5048602;28;20212;-63
2023/01/06 07:40:11;;;;;;;0.50;0.50;;;;;;;11.93;76.71;99969.03;5047536;28;20258;-62
2023/01/06 07:42:38;;;;;;;0.50;0.50;;;;;;;11.99;76.87;99974.00;5047554;28;20278;-62
2023/01/06 07:45:06;;;;;;;0.50;0.50;;;;;;;12.08;76.60;99971.22;5047361;28;20278;-62
2023/01/06 07:47:33;;;;;;;0.67;0.67;;;;;;;12.12;76.46;99980.50;5046362;28;20200;-63
2023/01/06 07:50:00;;;;;;;0.50;0.50;;;;;;;12.15;75.91;99967.56;5046617;28;20205;-63
2023/01/06 07:52:28;;;;;;;0.40;0.40;;;;;;;12.19;75.00;99976.03;5047935;28;20197;-63
2023/01/06 07:54:58;;;;;;;0.50;0.50;;;;;;;12.24;74.69;99967.34;5048185;28;20204;-63
2023/01/06 07:57:25;;;;;;;0.70;0.70;;;;;;;12.43;73.31;99983.09;5047498;28;20657;-63
2023/01/06 07:59:52;;;;;;;0.50;0.50;;;;;;;12.42;72.69;99984.81;5047599;28;20695;-63
2023/01/06 08:02:18;;;;;;;0.50;0.50;;;;;;;12.54;72.84;99981.88;5047577;28;20221;-63
2023/01/06 08:04:45;;;;;;;0.40;0.40;;;;;;;12.68;70.65;99993.50;5047157;28;20225;-63
2023/01/06 08:07:12;;;;;;;0.60;0.60;;;;;;;12.79;70.55;99982.03;5047823;28;20204;-63
2023/01/06 08:09:41;;;;;;;0.60;0.60;;;;;;;12.89;69.59;99992.88;5048659;28;20699;-63
2023/01/06 08:12:08;;;;;;;0.53;0.53;;;;;;;12.97;69.34;99998.63;5047471;28;20287;-64
2023/01/06 08:14:35;;;;;;;0.50;0.50;;;;;;;13.03;69.02;100001.00;5049710;28;20211;-64
2023/01/06 08:17:01;;;;;;;0.47;0.47;;;;;;;13.13;69.41;99997.31;5051622;28;20204;-64
2023/01/06 08:19:28;;;;;;;0.50;0.50;;;;;;;13.24;67.99;100002.97;5052878;28;20686;-63
2023/01/06 08:21:55;;;;;;;0.50;0.50;;;;;;;13.22;68.60;100012.47;5052359;28;20680;-64
2023/01/06 08:24:22;;;;;;;0.50;0.50;;;;;;;13.28;68.13;100008.88;5049798;28;20212;-64
2023/01/06 08:26:50;;;;;;;0.50;0.50;;;;;;;13.32;67.24;99997.56;5050243;28;20699;-63
2023/01/06 08:29:17;;;;;;;0.50;0.50;;;;;;;13.42;66.61;100011.84;5052596;28;20557;-64
2023/01/06 08:31:44;;;;;;;0.70;0.70;;;;;;;13.43;66.87;100022.09;5052363;28;20202;-64
2023/01/06 08:34:13;;;;;;;0.60;0.60;;;;;;;13.41;67.29;100017.91;5052315;28;20724;-63
2023/01/06 08:36:42;;;;;;;0.50;0.50;;;;;;;13.39;66.06;100007.63;5051982;28;20235;-63
2023/01/06 08:39:09;;;;;;;0.57;0.57;;;;;;;13.41;66.88;99997.28;5052472;28;20292;-64
2023/01/06 08:41:35;;;;;;;0.50;0.50;;;;;;;13.50;66.81;99987.53;5052084;28;20454;-64
2023/01/06 08:44:04;;;;;;;0.40;0.40;;;;;;;13.60;68.10;99978.59;5052417;28;20220;-64
2023/01/06 08:46:31;;;;;;;0.50;0.50;;;;;;;13.66;66.71;99987.88;5052463;28;20209;-63
2023/01/06 08:48:58;;;;;;;0.50;0.50;;;;;;;13.67;66.07;99964.59;5051805;28;20603;-63
2023/01/06 08:51:27;;;;;;;0.63;0.63;;;;;;;13.71;66.19;99974.81;5052974;28;20197;-63
2023/01/06 08:53:54;;;;;;;0.50;0.50;;;;;;;13.82;65.67;99973.56;5052904;28;20276;-63
2023/01/06 08:56:22;;;;;;;0.53;0.53;;;;;;;13.89;65.94;99959.59;5053355;28;20194;-63
2023/01/06 08:58:51;;;;;;;0.40;0.40;;;;;;;13.76;64.93;99926.56;5053392;28;20200;-63
2023/01/06 09:01:21;;;;;;;0.50;0.50;;;;;;;14.00;64.95;99941.16;5052858;28;20197;-63
2023/01/06 09:03:48;;;;;;;0.50;0.50;;;;;;;13.99;65.18;99932.56;5052572;28;20227;-63
2023/01/06 09:06:15;;;;;;;0.50;0.50;;;;;;;14.08;64.73;99941.72;5050975;28;20209;-63
2023/01/06 09:08:44;;;;;;;0.57;0.57;;;;;;;14.15;63.93;99940.63;5050912;28;20201;-63
2023/01/06 09:11:12;;;;;;;0.50;0.50;;;;;;;14.17;63.76;99951.72;5051174;28;20806;-63
2023/01/06 09:13:39;;;;;;;0.60;0.60;;;;;;;14.24;63.91;99935.13;5052502;28;20658;-63
2023/01/06 09:16:07;;;;;;;0.60;0.60;;;;;;;14.24;63.06;99939.44;5051697;28;20205;-62
2023/01/06 09:18:35;;;;;;;0.50;0.50;;;;;;;14.31;62.70;99941.75;5050768;28;20267;-63
2023/01/06 09:21:02;;;;;;;0.47;0.47;;;;;;;14.32;62.25;99935.66;5052558;28;20255;-62
2023/01/06 09:23:29;;;;;;;0.50;0.50;;;;;;;14.35;61.94;99953.63;5050396;28;20224;-62
2023/01/06 09:25:57;;;;;;;1.07;0.70;;;;;;;14.43;61.45;99935.31;5051408;28;20206;-63
2023/01/06 09:28:24;;;;;;;0.40;0.40;;;;;;;14.48;61.31;99938.53;5047869;28;20204;-63
2023/01/06 09:30:50;;;;;;;0.60;0.60;;;;;;;14.41;60.28;99927.63;5050032;28;20254;-62
2023/01/06 09:33:18;;;;;;;0.50;0.50;;;;;;;14.39;61.16;99916.53;5052047;28;20201;-62
2023/01/06 09:35:47;;;;;;;0.60;0.60;;;;;;;14.60;61.32;99923.44;5047530;28;20207;-62
2023/01/06 09:38:14;;;;;;;0.43;0.43;;;;;;;14.54;60.10;99928.03;5051468;28;20210;-62
2023/01/06 09:40:53;;;;;;;0.50;0.50;;;;;;;14.64;60.75;99909.53;5044653;28;20215;-63
2023/01/06 09:43:31;;;;;;;0.40;0.40;;;;;;;14.55;59.72;99907.31;5046863;28;20669;-62
2023/01/06 09:46:02;;;;;;;0.40;0.40;;;;;;;14.64;58.86;99912.13;5049858;28;20919;-62
2023/01/06 09:48:33;;;;;;;0.50;0.50;;;;;;;14.70;58.92;99893.81;5050404;28;20196;-62
2023/01/06 09:51:05;;;;;;;0.47;0.47;;;;;;;14.78;58.94;99897.84;5049240;28;20202;-62
2023/01/06 09:53:36;;;;;;;0.50;0.50;;;;;;;14.85;58.19;99912.19;5049693;28;20202;-62
2023/01/06 09:56:06;;;;;;;0.40;0.40;;;;;;;14.90;59.01;99912.81;5048876;28;20447;-60
2023/01/06 09:58:38;;;;;;;0.40;0.40;;;;;;;15.01;57.89;99915.84;5050942;28;20205;-61
2023/01/06 10:01:09;;;;;;;0.40;0.40;;;;;;;15.05;58.04;99920.84;5051317;28;20250;-58
2023/01/06 10:03:36;;;;;;;0.40;0.40;;;;;;;15.09;57.51;99921.53;5050155;28;20228;-59
2023/01/06 10:06:18;;;;;;;0.32;0.32;;;;;;;15.18;57.33;99926.34;5050391;28;20804;-64
2023/01/06 10:08:54;;;;;;;0.40;0.40;;;;;;;15.25;57.13;99922.59;5049001;28;20595;-63
2023/01/06 10:11:33;;;;;;;0.60;0.60;;;;;;;15.35;55.66;99913.56;5050647;28;20205;-63
2023/01/06 10:14:10;;;;;;;0.50;0.50;;;;;;;15.35;56.76;99930.81;5050676;28;20192;-61
2023/01/06 10:16:52;;;;;;;0.47;0.47;;;;;;;15.41;57.47;99918.47;5050984;28;20305;-62
2023/01/06 10:19:29;;;;;;;0.50;0.50;;;;;;;15.40;56.49;99909.06;5048524;28;20584;-61
2023/01/06 10:22:07;;;;;;;0.50;0.50;;;;;;;15.45;56.09;99925.19;5050361;28;20215;-61
2023/01/06 10:24:54;;;;;;;0.50;0.50;;;;;;;15.42;56.29;99925.31;5051446;28;20231;-63
2023/01/06 10:27:26;;;;;;;0.57;0.57;;;;;;;15.43;55.94;99931.34;5050580;28;20672;-61
2023/01/06 10:29:56;;;;;;;0.40;0.40;;;;;;;15.48;56.43;99930.25;5050706;28;20201;-61
2023/01/06 10:32:28;;;;;;;0.50;0.50;;;;;;;15.49;55.75;99916.44;5050862;28;20208;-62
2023/01/06 10:34:56;;;;;;;0.50;0.50;;;;;;;15.53;56.18;99920.59;5048553;28;20561;-62
2023/01/06 10:37:30;;;;;;;0.50;0.50;;;;;;;15.47;55.42;99896.72;5047461;28;20213;-62
2023/01/06 10:40:03;;;;;;;0.40;0.40;;;;;;;15.59;55.80;99902.25;5045634;28;20201;-62
2023/01/06 10:42:55;;;;;;;0.60;0.60;;;;;;;15.55;55.00;99905.84;5048695;28;20652;-62
2023/01/06 10:45:23;;;;;;;0.40;0.40;;;;;;;15.52;55.39;99898.22;5047675;28;20268;-62
2023/01/06 10:47:50;;;;;;;0.60;0.60;;;;;;;15.62;56.52;99902.09;5050326;28;20648;-62
2023/01/06 10:50:18;;;;;;;0.50;0.50;;;;;;;15.67;55.60;99889.81;5049726;28;20208;-62
2023/01/06 10:52:48;;;;;;;0.50;0.50;;;;;;;15.69;55.05;99893.19;5049952;28;20208;-62
2023/01/06 10:55:33;;;;;;;0.50;0.50;;;;;;;15.77;55.61;99885.91;5050180;28;20197;-62
2023/01/06 10:58:11;;;;;;;0.57;0.57;;;;;;;15.75;54.75;99879.16;5048032;28;20672;-62
2023/01/06 11:00:53;;;;;;;0.60;0.60;;;;;;;15.66;55.33;99867.47;5050006;28;20213;-62
2023/01/06 11:03:21;;;;;;;0.40;0.40;;;;;;;15.78;55.48;99884.19;5046739;28;20236;-62
2023/01/06 11:05:49;;;;;;;0.93;0.93;;;;;;;15.77;55.60;99889.44;5048205;28;20625;-62
2023/01/06 11:08:18;;;;;;;1.23;1.23;;;;;;;15.70;55.14;99873.34;5049146;28;20203;-62
2023/01/06 11:10:53;;;;;;;0.50;0.50;;;;;;;15.69;55.24;99867.34;5047264;28;20205;-63
2023/01/06 11:13:26;;;;;;;0.40;0.40;;;;;;;15.77;55.13;99870.41;5047403;28;20207;-62
2023/01/06 11:15:54;;;;;;;0.50;0.50;;;;;;;15.77;55.50;99860.06;5048507;28;20201;-61
2023/01/06 11:18:23;;;;;;;0.50;0.50;;;;;;;15.71;54.20;99854.34;5048414;28;20282;-61
2023/01/06 11:21:05;;;;;;;0.50;0.50;;;;;;;15.84;54.49;99854.63;5047926;28;20201;-62
2023/01/06 11:23:34;;;;;;;0.53;0.53;;;;;;;15.86;53.69;99852.84;5047812;28;20224;-62
2023/01/06 11:26:14;;;;;;;0.50;0.50;;;;;;;15.88;53.36;99856.19;5048077;28;20208;-63
2023/01/06 11:28:42;;;;;;;0.40;0.40;;;;;;;15.84;53.90;99852.88;5047627;28;20200;-63
2023/01/06 11:31:16;;;;;;;0.50;0.50;;;;;;;15.73;53.40;99826.69;5048801;28;20202;-63
2023/01/06 11:33:49;;;;;;;0.50;0.50;;;;;;;15.83;52.85;99848.66;5049598;28;20306;-63
2023/01/06 11:36:16;;;;;;;0.60;0.60;;;;;;;15.86;53.53;99830.41;5050040;28;20254;-63
2023/01/06 11:38:48;;;;;;;0.50;0.50;;;;;;;15.90;53.22;99836.25;5045565;28;20201;-63
2023/01/06 11:41:23;;;;;;;0.40;0.40;;;;;;;15.87;53.93;99828.63;5049388;28;20208;-63
2023/01/06 11:43:52;;;;;;;0.40;0.40;;;;;;;15.86;53.07;99833.00;5048058;28;20903;-63
2023/01/06 11:46:24;;;;;;;0.40;0.40;;;;;;;15.92;53.20;99826.69;5048980;28;20203;-63
2023/01/06 11:48:59;;;;;;;0.60;0.60;;;;;;;15.91;52.80;99819.84;5049408;28;20204;-63